Time;durP1;ratioP1;P1;durP2;ratioP2;P2;SDS_P1;SDS_P2;PMS_P1;PMS_P2;Temp;Humidity;BMP_temperature;BMP_pressure;BME280_temperature;BME280_humidity;BME280_pressure;Samples;Min_cycle;Max_cycle;Signal;HPM_P1;HPM_P2
2024/04/11 00:01:14;;;;;;;5.27;1.27;;;13.20;60.90;;;;;;5527345;26;20213;-56
2024/04/11 00:03:43;;;;;;;3.27;1.20;;;13.10;61.70;;;;;;5527306;26;20450;-55
2024/04/11 00:06:09;;;;;;;6.00;1.90;;;13.10;62.80;;;;;;5527334;26;20213;-55
2024/04/11 00:08:37;;;;;;;1.63;0.87;;;13.10;63.40;;;;;;5527482;25;20462;-55
2024/04/11 00:11:06;;;;;;;4.17;1.50;;;13.10;62.90;;;;;;5527089;26;20221;-55
2024/04/11 00:13:34;;;;;;;8.63;1.50;;;13.10;61.20;;;;;;5527181;25;20994;-56
2024/04/11 00:16:00;;;;;;;3.07;1.50;;;13.10;61.20;;;;;;5526930;26;20529;-55
2024/04/11 00:18:28;;;;;;;4.90;1.10;;;13.10;60.30;;;;;;5526918;25;20803;-55
2024/04/11 00:20:54;;;;;;;6.90;1.50;;;13.10;60.40;;;;;;5526942;26;20313;-56
2024/04/11 00:23:23;;;;;;;3.00;1.43;;;13.10;60.30;;;;;;5527348;26;20462;-55
2024/04/11 00:25:56;;;;;;;3.97;1.50;;;13.00;60.60;;;;;;5527329;25;20499;-56
2024/04/11 00:28:28;;;;;;;3.97;1.50;;;13.10;60.80;;;;;;5526778;25;20999;-56
2024/04/11 00:30:54;;;;;;;4.87;1.20;;;13.00;60.40;;;;;;5526898;25;20596;-56
2024/04/11 00:33:25;;;;;;;7.13;2.20;;;13.00;60.20;;;;;;5526765;25;20505;-57
2024/04/11 00:35:50;;;;;;;3.20;1.00;;;13.00;60.50;;;;;;5526936;26;20532;-56
2024/04/11 00:38:20;;;;;;;8.03;1.50;;;13.00;60.40;;;;;;5526698;25;20551;-56
2024/04/11 00:40:53;;;;;;;7.13;1.50;;;13.00;60.40;;;;;;5526546;26;20319;-57
2024/04/11 00:43:22;;;;;;;4.20;1.10;;;12.90;60.10;;;;;;5526765;26;20568;-56
2024/04/11 00:45:51;;;;;;;2.30;1.10;;;12.90;60.10;;;;;;5526573;26;21085;-56
2024/04/11 00:48:21;;;;;;;6.67;1.00;;;12.90;60.40;;;;;;5526545;25;20515;-56
2024/04/11 00:50:50;;;;;;;7.47;1.70;;;12.90;60.20;;;;;;5526926;26;20450;-56
2024/04/11 00:53:19;;;;;;;3.93;1.20;;;12.90;60.20;;;;;;5526593;26;20462;-56
2024/04/11 00:55:45;;;;;;;3.10;1.40;;;12.80;59.90;;;;;;5526332;26;20980;-56
2024/04/11 00:58:14;;;;;;;7.00;1.33;;;12.80;60.20;;;;;;5526637;25;20449;-56
2024/04/11 01:00:41;;;;;;;6.53;1.77;;;12.80;60.00;;;;;;5526340;26;20506;-56
2024/04/11 01:03:13;;;;;;;4.20;1.10;;;12.80;59.60;;;;;;5525597;26;20971;-57
2024/04/11 01:05:38;;;;;;;3.77;1.10;;;12.80;59.40;;;;;;5526476;26;21084;-55
2024/04/11 01:08:09;;;;;;;5.93;1.30;;;12.80;59.60;;;;;;5526316;25;20477;-55
2024/04/11 01:10:37;;;;;;;3.13;1.47;;;12.80;59.30;;;;;;5526756;26;20305;-56
2024/04/11 01:13:06;;;;;;;4.13;1.30;;;12.80;58.70;;;;;;5527753;26;20457;-56
2024/04/11 01:15:34;;;;;;;4.30;1.10;;;12.80;58.80;;;;;;5526238;25;20450;-56
2024/04/11 01:18:03;;;;;;;7.73;1.63;;;12.70;58.70;;;;;;5525866;25;20791;-56
2024/04/11 01:20:32;;;;;;;3.00;1.43;;;12.70;58.70;;;;;;5526100;26;20536;-56
2024/04/11 01:23:03;;;;;;;6.20;1.53;;;12.70;59.00;;;;;;5525865;26;20517;-56
2024/04/11 01:25:29;;;;;;;2.90;1.40;;;12.70;58.40;;;;;;5526185;26;20446;-56
2024/04/11 01:27:59;;;;;;;5.50;1.27;;;12.70;58.30;;;;;;5525961;25;20455;-56
2024/04/11 01:30:25;;;;;;;4.97;1.90;;;12.70;58.60;;;;;;5525827;26;20454;-57
2024/04/11 01:32:59;;;;;;;5.07;2.00;;;12.70;58.20;;;;;;5525922;26;20595;-56
2024/04/11 01:35:26;;;;;;;2.63;1.00;;;12.70;57.70;;;;;;5525724;26;20449;-56
2024/04/11 01:37:55;;;;;;;5.17;1.10;;;12.70;57.80;;;;;;5525493;25;20892;-56
2024/04/11 01:40:24;;;;;;;7.20;1.60;;;12.80;58.00;;;;;;5525480;26;20448;-57
2024/04/11 01:42:54;;;;;;;6.00;1.27;;;12.70;57.80;;;;;;5525606;25;20518;-56
2024/04/11 01:45:19;;;;;;;4.33;1.17;;;12.70;57.70;;;;;;5525748;25;20442;-56
2024/04/11 01:47:48;;;;;;;2.17;0.90;;;12.70;57.50;;;;;;5525471;25;21037;-56
2024/04/11 01:50:14;;;;;;;6.27;1.30;;;12.70;57.90;;;;;;5525663;26;20309;-56
2024/04/11 01:52:42;;;;;;;1.80;0.87;;;12.70;58.30;;;;;;5525354;26;20446;-56
2024/04/11 01:55:08;;;;;;;6.37;1.80;;;12.70;58.00;;;;;;5525429;26;20451;-56
2024/04/11 01:57:39;;;;;;;7.37;1.20;;;12.70;58.00;;;;;;5525289;25;20856;-57
2024/04/11 02:00:12;;;;;;;8.73;1.13;;;12.70;58.00;;;;;;5525443;26;20317;-57
2024/04/11 02:02:43;;;;;;;5.53;1.30;;;12.70;58.00;;;;;;5525323;25;20489;-57
2024/04/11 02:05:09;;;;;;;4.10;1.37;;;12.70;58.40;;;;;;5525461;25;20885;-56
2024/04/11 02:07:39;;;;;;;4.47;1.17;;;12.70;58.20;;;;;;5525241;25;20482;-56
2024/04/11 02:10:05;;;;;;;3.33;1.13;;;12.70;58.40;;;;;;5525148;26;20450;-56
2024/04/11 02:12:34;;;;;;;6.60;1.47;;;12.70;58.90;;;;;;5525574;26;20457;-57
2024/04/11 02:15:06;;;;;;;4.03;1.63;;;12.70;58.70;;;;;;5525846;26;20551;-57
2024/04/11 02:17:35;;;;;;;5.50;1.57;;;12.70;58.70;;;;;;5528845;25;20563;-57
2024/04/11 02:20:01;;;;;;;2.70;1.30;;;12.70;58.50;;;;;;5528665;25;20461;-57
2024/04/11 02:22:31;;;;;;;4.50;1.37;;;12.70;58.60;;;;;;5528863;26;20497;-57
2024/04/11 02:24:56;;;;;;;5.27;1.37;;;12.70;58.70;;;;;;5528950;26;20552;-57
2024/04/11 02:27:25;;;;;;;7.60;1.20;;;12.70;58.80;;;;;;5529056;25;20462;-57
2024/04/11 02:29:51;;;;;;;3.60;1.30;;;12.70;59.00;;;;;;5529072;26;20222;-57
2024/04/11 02:32:22;;;;;;;4.60;1.13;;;12.70;59.10;;;;;;5528999;26;20567;-57
2024/04/11 02:34:48;;;;;;;3.70;1.20;;;12.70;59.80;;;;;;5528861;26;20779;-57
2024/04/11 02:37:16;;;;;;;5.00;1.17;;;12.70;60.40;;;;;;5528701;25;20565;-58
2024/04/11 02:39:42;;;;;;;4.13;2.03;;;12.60;60.40;;;;;;5528627;26;20776;-57
2024/04/11 02:42:10;;;;;;;3.33;1.50;;;12.60;60.10;;;;;;5528582;26;20458;-57
2024/04/11 02:44:36;;;;;;;4.77;1.17;;;12.60;60.50;;;;;;5528506;26;20644;-57
2024/04/11 02:47:05;;;;;;;9.63;1.70;;;12.50;60.50;;;;;;5528665;26;20458;-56
2024/04/11 02:49:34;;;;;;;5.80;1.33;;;12.50;61.40;;;;;;5528361;25;20221;-57
2024/04/11 02:52:04;;;;;;;3.23;1.47;;;12.50;61.00;;;;;;5528508;26;20462;-57
2024/04/11 02:54:30;;;;;;;5.10;1.17;;;12.50;61.30;;;;;;5528595;26;20454;-57
2024/04/11 02:56:59;;;;;;;5.83;1.70;;;12.50;62.00;;;;;;5528489;26;20458;-57
2024/04/11 02:59:25;;;;;;;6.77;1.77;;;12.40;62.40;;;;;;5528306;25;20999;-57
2024/04/11 03:01:57;;;;;;;5.70;2.37;;;12.50;62.50;;;;;;5528218;26;20548;-57
2024/04/11 03:04:23;;;;;;;3.23;1.47;;;12.40;62.40;;;;;;5528347;26;20247;-57
2024/04/11 03:06:54;;;;;;;6.90;2.20;;;12.40;63.20;;;;;;5528155;26;20506;-56
2024/04/11 03:09:20;;;;;;;5.33;1.90;;;12.40;62.90;;;;;;5529031;25;20319;-57
2024/04/11 03:11:48;;;;;;;5.13;1.77;;;12.50;63.50;;;;;;5529327;26;20442;-55
2024/04/11 03:14:14;;;;;;;3.13;1.27;;;12.40;63.60;;;;;;5529469;26;20261;-56
2024/04/11 03:16:43;;;;;;;3.20;1.90;;;12.40;63.10;;;;;;5528428;26;20458;-56
2024/04/11 03:19:09;;;;;;;3.70;1.47;;;12.40;63.30;;;;;;5527900;25;21071;-57
2024/04/11 03:21:37;;;;;;;6.87;1.80;;;12.30;63.50;;;;;;5528042;26;20458;-56
2024/04/11 03:24:06;;;;;;;4.43;2.03;;;12.40;63.80;;;;;;5528046;26;20214;-55
2024/04/11 03:26:34;;;;;;;2.60;1.63;;;12.40;63.90;;;;;;5527640;25;20509;-56
2024/04/11 03:29:00;;;;;;;8.50;1.50;;;12.40;63.90;;;;;;5527937;25;20518;-57
2024/04/11 03:31:26;;;;;;;4.33;1.63;;;12.40;64.30;;;;;;5527850;26;20442;-56
2024/04/11 03:33:57;;;;;;;4.53;2.10;;;12.40;64.30;;;;;;5527849;26;20209;-56
2024/04/11 03:36:23;;;;;;;4.67;1.53;;;12.40;64.00;;;;;;5527900;26;20214;-56
2024/04/11 03:38:54;;;;;;;4.80;1.70;;;12.40;64.20;;;;;;5527842;25;20446;-56
2024/04/11 03:41:22;;;;;;;3.60;1.60;;;12.40;64.10;;;;;;5527662;26;20244;-57
2024/04/11 03:43:54;;;;;;;4.87;1.60;;;12.40;63.80;;;;;;5527650;26;20546;-56
2024/04/11 03:46:23;;;;;;;5.57;1.67;;;12.40;64.00;;;;;;5527813;26;20445;-56
2024/04/11 03:48:55;;;;;;;3.93;1.37;;;12.50;64.20;;;;;;5527529;25;20461;-57
2024/04/11 03:51:22;;;;;;;3.83;1.53;;;12.50;64.90;;;;;;5527715;26;20914;-56
2024/04/11 03:53:53;;;;;;;4.10;1.60;;;12.50;64.50;;;;;;5527539;26;20434;-56
2024/04/11 03:56:23;;;;;;;6.00;1.87;;;12.50;65.20;;;;;;5527583;26;20441;-56
2024/04/11 03:58:52;;;;;;;5.00;1.30;;;12.50;65.20;;;;;;5527217;25;20458;-57
2024/04/11 04:01:18;;;;;;;4.60;1.20;;;12.60;65.50;;;;;;5527319;26;20498;-56
2024/04/11 04:03:48;;;;;;;5.20;2.07;;;12.60;65.10;;;;;;5527322;26;20458;-56
2024/04/11 04:06:15;;;;;;;8.90;2.10;;;12.60;64.30;;;;;;5526952;26;21031;-57
2024/04/11 04:08:45;;;;;;;7.93;1.10;;;12.60;64.50;;;;;;5527231;25;20518;-56
2024/04/11 04:11:11;;;;;;;2.37;1.60;;;12.60;65.40;;;;;;5527066;26;20446;-56
2024/04/11 04:13:43;;;;;;;2.40;1.50;;;12.60;65.90;;;;;;5526839;26;20446;-57
2024/04/11 04:16:10;;;;;;;3.20;1.10;;;12.60;66.00;;;;;;5526925;25;20829;-57
2024/04/11 04:18:40;;;;;;;6.23;1.20;;;12.60;65.50;;;;;;5526784;25;20522;-57
2024/04/11 04:21:09;;;;;;;3.63;1.30;;;12.60;65.10;;;;;;5526881;26;20875;-55
2024/04/11 04:23:36;;;;;;;3.90;1.30;;;12.70;65.00;;;;;;5526818;26;21037;-55
2024/04/11 04:26:08;;;;;;;3.13;1.30;;;12.70;64.60;;;;;;5526804;26;20547;-55
2024/04/11 04:28:35;;;;;;;5.17;1.57;;;12.80;64.40;;;;;;5526645;25;21086;-55
2024/04/11 04:31:17;;;;;;;4.77;1.60;;;12.80;64.10;;;;;;5526636;26;20446;-55
2024/04/11 04:33:43;;;;;;;6.37;1.97;;;12.80;64.90;;;;;;5527059;26;20497;-55
2024/04/11 04:36:16;;;;;;;2.83;1.80;;;12.80;66.00;;;;;;5526927;26;20559;-55
2024/04/11 04:38:42;;;;;;;6.83;1.57;;;12.80;67.20;;;;;;5525718;25;20462;-56
2024/04/11 04:41:11;;;;;;;4.30;1.90;;;12.70;66.40;;;;;;5526626;25;20506;-57
2024/04/11 04:43:37;;;;;;;4.40;1.30;;;12.70;66.30;;;;;;5526673;26;20988;-55
2024/04/11 04:46:06;;;;;;;4.20;1.60;;;12.70;65.90;;;;;;5526698;26;21049;-55
2024/04/11 04:48:34;;;;;;;3.33;1.87;;;12.70;66.30;;;;;;5526596;25;20473;-55
2024/04/11 04:51:04;;;;;;;4.23;1.73;;;12.70;66.20;;;;;;5526625;25;20987;-55
2024/04/11 04:53:30;;;;;;;6.53;1.80;;;12.70;66.40;;;;;;5526525;26;20487;-55
2024/04/11 04:55:58;;;;;;;7.67;1.67;;;12.70;66.40;;;;;;5526706;26;20454;-55
2024/04/11 04:58:26;;;;;;;6.73;1.97;;;12.70;66.50;;;;;;5526067;25;20272;-57
2024/04/11 05:00:55;;;;;;;4.93;1.73;;;12.70;66.70;;;;;;5526381;26;20506;-56
2024/04/11 05:03:22;;;;;;;6.30;2.00;;;12.70;66.20;;;;;;5526556;26;20499;-56
2024/04/11 05:05:54;;;;;;;6.33;1.90;;;12.70;66.70;;;;;;5526476;26;20506;-56
2024/04/11 05:08:23;;;;;;;8.63;1.90;;;12.60;66.80;;;;;;5526616;25;20462;-56
2024/04/11 05:10:56;;;;;;;4.40;1.67;;;12.60;66.30;;;;;;5526266;25;20458;-55
2024/04/11 05:13:26;;;;;;;4.63;1.73;;;12.60;66.80;;;;;;5526357;26;20442;-56
2024/04/11 05:16:01;;;;;;;2.17;1.20;;;12.50;66.80;;;;;;5512050;26;20516;-56
2024/04/11 05:18:27;;;;;;;3.50;1.23;;;12.50;67.20;;;;;;5489354;26;20613;-56
2024/04/11 05:20:58;;;;;;;10.60;1.63;;;12.50;67.90;;;;;;5489258;26;20471;-56
2024/04/11 05:23:32;;;;;;;2.80;1.63;;;12.50;68.20;;;;;;5489460;26;20455;-56
2024/04/11 05:26:07;;;;;;;7.67;1.60;;;12.50;67.20;;;;;;5489026;26;20992;-56
2024/04/11 05:28:36;;;;;;;4.33;1.80;;;12.40;67.40;;;;;;5488868;26;20471;-56
2024/04/11 05:31:06;;;;;;;4.47;1.77;;;12.50;67.90;;;;;;5488806;26;20448;-57
2024/04/11 05:33:32;;;;;;;5.73;1.57;;;12.50;67.90;;;;;;5488980;26;20447;-56
2024/04/11 05:36:06;;;;;;;3.47;1.97;;;12.50;68.10;;;;;;5488803;26;20459;-56
2024/04/11 05:38:32;;;;;;;4.80;2.27;;;12.50;68.40;;;;;;5488842;26;20463;-57
2024/04/11 05:41:01;;;;;;;4.37;1.77;;;12.50;68.80;;;;;;5488828;26;20521;-56
2024/04/11 05:43:27;;;;;;;3.13;1.87;;;12.50;68.40;;;;;;5488404;26;20499;-57
2024/04/11 05:45:57;;;;;;;5.57;1.83;;;12.60;69.00;;;;;;5488846;26;20515;-56
2024/04/11 05:48:23;;;;;;;4.93;1.77;;;12.60;68.80;;;;;;5488876;26;20285;-56
2024/04/11 05:50:54;;;;;;;2.40;1.40;;;12.60;69.00;;;;;;5518473;26;20470;-56
2024/04/11 05:53:23;;;;;;;3.63;1.90;;;12.60;68.60;;;;;;5529435;25;20454;-56
2024/04/11 05:55:53;;;;;;;4.30;1.30;;;12.70;69.10;;;;;;5529398;25;20541;-56
2024/04/11 05:58:19;;;;;;;7.23;1.90;;;12.70;68.60;;;;;;5529424;25;20466;-56
2024/04/11 06:00:49;;;;;;;8.30;1.80;;;12.70;68.30;;;;;;5529216;25;20462;-56
2024/04/11 06:03:15;;;;;;;5.13;1.90;;;12.70;68.70;;;;;;5529271;25;20319;-56
2024/04/11 06:05:44;;;;;;;3.70;1.43;;;12.70;69.20;;;;;;5529336;25;20453;-56
2024/04/11 06:08:10;;;;;;;3.93;1.40;;;12.80;69.30;;;;;;5529327;25;20469;-56
2024/04/11 06:10:41;;;;;;;4.70;1.37;;;12.70;69.00;;;;;;5529337;25;20555;-56
2024/04/11 06:13:06;;;;;;;5.57;1.97;;;12.70;69.10;;;;;;5529291;25;20217;-56
2024/04/11 06:15:35;;;;;;;7.93;2.20;;;12.70;69.60;;;;;;5529397;25;20784;-56
2024/04/11 06:18:09;;;;;;;11.00;2.17;;;12.70;69.50;;;;;;5529098;25;20268;-56
2024/04/11 06:20:38;;;;;;;8.13;2.07;;;12.70;69.60;;;;;;5529127;25;20526;-56
2024/04/11 06:23:08;;;;;;;10.93;2.40;;;12.70;70.00;;;;;;5529133;25;20555;-56
2024/04/11 06:25:41;;;;;;;9.63;1.90;;;12.70;70.40;;;;;;5529137;25;20442;-56
2024/04/11 06:28:11;;;;;;;13.20;2.27;;;12.70;70.20;;;;;;5529078;25;20477;-56
2024/04/11 06:30:40;;;;;;;8.93;1.90;;;12.70;70.50;;;;;;5529412;25;20517;-56
2024/04/11 06:33:10;;;;;;;4.90;2.37;;;12.80;70.80;;;;;;5529191;25;20897;-56
2024/04/11 06:35:36;;;;;;;9.93;2.57;;;12.80;70.90;;;;;;5528960;25;20987;-56
2024/04/11 06:38:07;;;;;;;10.63;2.60;;;12.80;70.60;;;;;;5528848;25;20470;-56
2024/04/11 06:40:33;;;;;;;5.23;1.83;;;12.80;71.10;;;;;;5528730;25;20206;-56
2024/04/11 06:43:08;;;;;;;17.73;2.70;;;12.90;71.30;;;;;;5528740;25;20454;-55
2024/04/11 06:45:34;;;;;;;9.53;2.03;;;13.00;71.60;;;;;;5528860;25;20575;-56
2024/04/11 06:48:02;;;;;;;10.40;2.53;;;13.10;71.90;;;;;;5528635;25;21015;-56
2024/04/11 06:50:28;;;;;;;9.43;1.70;;;13.10;72.00;;;;;;5528644;25;20450;-55
2024/04/11 06:52:59;;;;;;;7.57;2.10;;;13.20;71.30;;;;;;5528674;25;20509;-56
2024/04/11 06:55:25;;;;;;;7.00;2.37;;;13.30;71.40;;;;;;5528860;25;20497;-56
2024/04/11 06:57:53;;;;;;;6.13;2.20;;;13.40;71.40;;;;;;5528462;25;21071;-56
2024/04/11 07:00:26;;;;;;;6.70;2.17;;;13.50;71.40;;;;;;5527802;25;20450;-55
2024/04/11 07:02:55;;;;;;;12.57;2.40;;;13.50;71.30;;;;;;5528508;25;20845;-56
2024/04/11 07:05:21;;;;;;;6.63;1.70;;;13.60;71.30;;;;;;5528393;25;20450;-56
2024/04/11 07:07:54;;;;;;;12.20;2.40;;;13.70;71.80;;;;;;5528080;25;20466;-56
2024/04/11 07:10:24;;;;;;;8.53;1.90;;;13.80;71.60;;;;;;5528505;25;20825;-56
2024/04/11 07:12:52;;;;;;;11.07;2.57;;;13.90;70.60;;;;;;5528384;25;20448;-55
2024/04/11 07:15:23;;;;;;;9.87;2.10;;;14.00;70.00;;;;;;5528269;25;20975;-55
2024/04/11 07:17:56;;;;;;;10.53;2.23;;;14.10;69.90;;;;;;5528220;25;20451;-56
2024/04/11 07:20:25;;;;;;;6.60;2.03;;;14.20;70.10;;;;;;5528280;25;20567;-56
2024/04/11 07:22:55;;;;;;;5.23;1.80;;;14.30;70.90;;;;;;5528309;25;20501;-56
2024/04/11 07:25:21;;;;;;;11.63;2.80;;;14.40;70.50;;;;;;5528207;25;20461;-56
2024/04/11 07:27:51;;;;;;;11.73;2.10;;;14.40;70.00;;;;;;5528102;25;20462;-56
2024/04/11 07:30:20;;;;;;;12.40;2.07;;;14.50;70.30;;;;;;5528044;25;20438;-55
2024/04/11 07:32:51;;;;;;;9.90;2.00;;;14.60;70.00;;;;;;5528086;25;20564;-56
2024/04/11 07:35:17;;;;;;;5.80;1.90;;;14.70;70.10;;;;;;5527977;25;20490;-56
2024/04/11 07:37:47;;;;;;;6.53;1.40;;;14.70;68.90;;;;;;5528185;25;20883;-56
2024/04/11 07:40:27;;;;;;;11.73;2.60;;;14.80;68.50;;;;;;5527903;25;20755;-56
2024/04/11 07:43:05;;;;;;;4.87;1.23;;;14.90;68.30;;;;;;5528038;25;20454;-56
2024/04/11 07:45:35;;;;;;;5.90;1.73;;;15.00;69.10;;;;;;5528230;25;20457;-56
2024/04/11 07:48:08;;;;;;;12.03;3.23;;;15.00;68.60;;;;;;5527756;25;20510;-56
2024/04/11 07:50:34;;;;;;;4.77;1.67;;;15.10;68.30;;;;;;5527887;25;20446;-56
2024/04/11 07:53:06;;;;;;;4.53;1.83;;;15.20;68.00;;;;;;5527808;25;20449;-55
2024/04/11 07:55:32;;;;;;;6.40;1.90;;;15.20;67.30;;;;;;5527828;25;20446;-56
2024/04/11 07:58:05;;;;;;;10.10;1.83;;;15.30;67.60;;;;;;5527595;25;21075;-56
2024/04/11 08:00:38;;;;;;;5.20;1.43;;;15.40;67.80;;;;;;5527750;25;20502;-56
2024/04/11 08:03:13;;;;;;;5.20;2.00;;;15.40;67.70;;;;;;5527751;25;20571;-56
2024/04/11 08:05:39;;;;;;;5.40;1.53;;;15.60;67.40;;;;;;5527633;25;20494;-56
2024/04/11 08:08:08;;;;;;;6.73;1.40;;;15.70;67.20;;;;;;5527529;25;20469;-56
2024/04/11 08:10:35;;;;;;;10.27;1.57;;;15.80;67.20;;;;;;5527463;25;20221;-56
2024/04/11 08:13:03;;;;;;;7.33;1.43;;;16.00;66.80;;;;;;5525822;25;20450;-56
2024/04/11 08:15:30;;;;;;;10.23;1.70;;;16.10;66.80;;;;;;5527563;25;20503;-56
2024/04/11 08:17:59;;;;;;;7.57;1.83;;;16.30;65.90;;;;;;5527358;25;21042;-56
2024/04/11 08:20:27;;;;;;;3.60;1.40;;;16.30;65.00;;;;;;5527333;25;20559;-56
2024/04/11 08:22:58;;;;;;;3.07;1.10;;;16.50;65.20;;;;;;5527339;25;20928;-56
2024/04/11 08:25:24;;;;;;;7.93;1.73;;;16.60;64.60;;;;;;5527367;25;20454;-55
2024/04/11 08:27:54;;;;;;;8.83;1.43;;;16.70;64.00;;;;;;5527148;25;21051;-56
2024/04/11 08:30:20;;;;;;;4.33;1.50;;;16.80;64.30;;;;;;5527247;25;20449;-56
2024/04/11 08:32:48;;;;;;;4.20;1.10;;;16.80;63.90;;;;;;5527213;25;20565;-56
2024/04/11 08:35:17;;;;;;;6.50;1.57;;;16.80;63.60;;;;;;5527117;25;20623;-56
2024/04/11 08:37:51;;;;;;;13.20;1.87;;;16.90;64.40;;;;;;5527114;25;20530;-56
2024/04/11 08:40:17;;;;;;;3.53;1.27;;;16.90;64.30;;;;;;5527006;25;20839;-56
2024/04/11 08:42:47;;;;;;;5.23;1.60;;;16.90;63.80;;;;;;5527140;25;20501;-56
2024/04/11 08:45:14;;;;;;;5.77;1.30;;;17.00;64.00;;;;;;5527302;25;20494;-56
2024/04/11 08:47:45;;;;;;;4.97;1.50;;;17.10;64.10;;;;;;5527158;25;20469;-56
2024/04/11 08:50:11;;;;;;;6.00;1.63;;;17.20;64.70;;;;;;5527021;25;20442;-56
2024/04/11 08:52:43;;;;;;;4.60;1.17;;;17.20;65.10;;;;;;5526919;25;21093;-56
2024/04/11 08:55:14;;;;;;;2.77;1.00;;;17.30;65.10;;;;;;5526949;25;20983;-56
2024/04/11 08:57:43;;;;;;;7.33;1.73;;;17.40;65.00;;;;;;5526819;25;21075;-56
2024/04/11 09:00:13;;;;;;;6.67;1.77;;;17.40;63.50;;;;;;5526726;25;20551;-56
2024/04/11 09:02:44;;;;;;;7.90;1.70;;;17.40;63.50;;;;;;5526815;25;20458;-56
2024/04/11 09:05:14;;;;;;;2.40;1.20;;;17.50;63.90;;;;;;5526729;25;20596;-56
2024/04/11 09:07:44;;;;;;;5.37;1.70;;;17.60;64.00;;;;;;5526633;25;20482;-56
2024/04/11 09:10:16;;;;;;;3.73;1.40;;;17.70;63.80;;;;;;5526777;25;20498;-56
2024/04/11 09:12:46;;;;;;;3.37;1.37;;;17.90;64.10;;;;;;5526712;25;20498;-56
2024/04/11 09:15:15;;;;;;;8.40;2.17;;;18.00;62.80;;;;;;5526695;25;20446;-56
2024/04/11 09:17:45;;;;;;;4.20;1.37;;;18.00;62.90;;;;;;5526367;25;20511;-56
2024/04/11 09:20:13;;;;;;;3.00;1.27;;;18.10;64.10;;;;;;5526753;25;20450;-56
2024/04/11 09:22:50;;;;;;;8.10;1.40;;;18.10;63.20;;;;;;5526354;25;20592;-56
2024/04/11 09:25:22;;;;;;;6.13;2.03;;;18.10;63.20;;;;;;5529085;25;20497;-56
2024/04/11 09:27:58;;;;;;;3.13;1.20;;;18.20;63.80;;;;;;5529881;25;20466;-56
2024/04/11 09:30:29;;;;;;;5.03;1.33;;;18.20;63.20;;;;;;5529899;25;20490;-56
2024/04/11 09:33:04;;;;;;;3.30;1.53;;;18.10;64.30;;;;;;5529892;25;20450;-56
2024/04/11 09:35:35;;;;;;;5.93;1.20;;;18.10;65.40;;;;;;5529967;25;20498;-56
2024/04/11 09:38:08;;;;;;;5.30;1.70;;;18.00;65.00;;;;;;5529736;25;21002;-56
2024/04/11 09:40:38;;;;;;;8.27;1.43;;;18.00;64.80;;;;;;5529667;25;20514;-56
2024/04/11 09:43:15;;;;;;;5.30;1.27;;;18.00;65.00;;;;;;5529739;25;20523;-56
2024/04/11 09:45:50;;;;;;;3.40;1.10;;;18.00;65.30;;;;;;5529737;25;20583;-56
2024/04/11 09:48:21;;;;;;;3.87;1.37;;;18.00;65.70;;;;;;5529626;25;20598;-56
2024/04/11 09:50:48;;;;;;;5.80;1.30;;;17.90;66.00;;;;;;5529612;25;20498;-56
2024/04/11 09:53:26;;;;;;;4.50;1.57;;;17.90;66.50;;;;;;5529654;25;20449;-56
2024/04/11 09:55:56;;;;;;;3.63;1.30;;;17.90;66.10;;;;;;5529568;25;21047;-56
2024/04/11 09:58:28;;;;;;;8.17;1.60;;;17.90;67.50;;;;;;5529472;25;20865;-56
2024/04/11 10:01:06;;;;;;;5.37;1.57;;;17.80;66.90;;;;;;5529432;25;20450;-56
2024/04/11 10:03:39;;;;;;;5.70;1.50;;;17.80;67.10;;;;;;5529449;25;20874;-56
2024/04/11 10:06:13;;;;;;;6.00;2.27;;;17.80;67.80;;;;;;5529428;25;20503;-56
2024/04/11 10:08:42;;;;;;;8.93;1.77;;;17.80;68.00;;;;;;5529462;25;20477;-56
2024/04/11 10:11:12;;;;;;;9.77;1.67;;;17.80;68.90;;;;;;5529264;25;20457;-56
2024/04/11 10:13:44;;;;;;;4.67;1.40;;;17.80;69.20;;;;;;5529225;25;20442;-56
2024/04/11 10:16:21;;;;;;;6.70;1.53;;;17.90;69.10;;;;;;5529272;25;20901;-56
2024/04/11 10:19:00;;;;;;;5.87;1.30;;;17.80;68.90;;;;;;5529104;25;20461;-56
2024/04/11 10:21:27;;;;;;;9.97;2.13;;;17.80;69.30;;;;;;5529107;25;20579;-56
2024/04/11 10:23:55;;;;;;;4.63;1.87;;;17.80;70.20;;;;;;5529123;25;20568;-56
2024/04/11 10:26:32;;;;;;;4.90;1.40;;;17.90;70.10;;;;;;5529054;25;20450;-56
2024/04/11 10:29:01;;;;;;;3.97;1.53;;;18.00;69.20;;;;;;5529073;25;20457;-56
2024/04/11 10:31:32;;;;;;;6.27;2.30;;;18.00;69.10;;;;;;5528968;25;20441;-56
2024/04/11 10:34:10;;;;;;;3.33;1.40;;;18.20;69.50;;;;;;5528987;25;20462;-55
2024/04/11 10:36:42;;;;;;;4.80;1.67;;;18.30;69.10;;;;;;5527791;25;20446;-56
2024/04/11 10:39:11;;;;;;;6.90;1.40;;;18.30;70.20;;;;;;5528760;25;20514;-56
2024/04/11 10:41:41;;;;;;;5.63;1.33;;;18.30;69.60;;;;;;5528758;25;20528;-56
2024/04/11 10:44:11;;;;;;;4.90;1.40;;;18.20;70.80;;;;;;5528855;25;20450;-56
2024/04/11 10:46:38;;;;;;;13.00;1.70;;;18.20;70.30;;;;;;5529080;25;20520;-56
2024/04/11 10:49:12;;;;;;;4.10;1.83;;;18.00;70.90;;;;;;5528676;25;20843;-56
2024/04/11 10:51:38;;;;;;;4.27;1.40;;;18.00;72.00;;;;;;5528717;25;20503;-56
2024/04/11 10:54:11;;;;;;;9.83;1.43;;;17.90;73.00;;;;;;5528582;25;20523;-56
2024/04/11 10:56:41;;;;;;;5.93;1.40;;;17.90;72.90;;;;;;5528615;25;20446;-56
2024/04/11 10:59:17;;;;;;;4.87;1.40;;;17.90;73.60;;;;;;5528629;25;20505;-56
2024/04/11 11:01:47;;;;;;;7.90;1.20;;;17.80;73.60;;;;;;5528559;25;21041;-56
2024/04/11 11:04:20;;;;;;;3.67;1.33;;;17.90;74.30;;;;;;5528660;25;20563;-56
2024/04/11 11:06:47;;;;;;;2.73;1.20;;;17.90;73.70;;;;;;5528364;25;20521;-56
2024/04/11 11:09:19;;;;;;;4.77;1.43;;;17.90;73.10;;;;;;5528244;25;20920;-56
2024/04/11 11:11:49;;;;;;;6.30;1.50;;;18.00;73.00;;;;;;5527966;25;21003;-57
2024/04/11 11:14:20;;;;;;;3.13;1.57;;;17.80;74.40;;;;;;5528067;25;20494;-56
2024/04/11 11:16:47;;;;;;;2.93;1.03;;;17.60;75.30;;;;;;5528305;25;20517;-56
2024/04/11 11:19:16;;;;;;;3.73;1.43;;;17.30;78.90;;;;;;5528002;25;20470;-57
2024/04/11 11:21:50;;;;;;;3.33;1.40;;;17.30;78.40;;;;;;5528098;25;20466;-56
2024/04/11 11:24:23;;;;;;;3.00;1.73;;;17.30;77.80;;;;;;5528186;25;20509;-57
2024/04/11 11:26:54;;;;;;;5.13;1.57;;;17.20;78.10;;;;;;5528246;25;20510;-57
2024/04/11 11:29:25;;;;;;;4.30;1.43;;;17.30;78.40;;;;;;5528176;25;20458;-57
2024/04/11 11:31:53;;;;;;;7.00;1.47;;;17.30;79.30;;;;;;5528187;25;20509;-57
2024/04/11 11:34:27;;;;;;;3.77;1.33;;;17.30;78.10;;;;;;5519339;25;20542;-57
2024/04/11 11:36:59;;;;;;;5.77;1.90;;;17.30;78.90;;;;;;5490724;26;20456;-58
2024/04/11 11:39:29;;;;;;;6.07;2.33;;;17.40;79.00;;;;;;5491106;26;20565;-56
2024/04/11 11:42:00;;;;;;;8.17;1.20;;;17.50;79.00;;;;;;5490910;26;20558;-57
2024/04/11 11:44:40;;;;;;;3.70;1.27;;;17.60;79.30;;;;;;5490815;26;20439;-57
2024/04/11 11:47:06;;;;;;;5.83;1.27;;;17.80;79.40;;;;;;5490442;26;20717;-57
2024/04/11 11:49:35;;;;;;;4.43;1.23;;;17.80;78.40;;;;;;5490969;26;20467;-56
2024/04/11 11:52:02;;;;;;;4.77;1.23;;;17.90;78.70;;;;;;5490947;26;20210;-57
2024/04/11 11:54:34;;;;;;;3.73;1.53;;;17.90;78.40;;;;;;5491033;26;20447;-57
2024/04/11 11:57:09;;;;;;;3.67;1.07;;;18.00;80.60;;;;;;5490972;26;20444;-57
2024/04/11 11:59:38;;;;;;;7.37;1.77;;;18.20;78.60;;;;;;5492599;26;20623;-57
2024/04/11 12:02:04;;;;;;;5.40;1.50;;;18.30;78.40;;;;;;5492813;26;20467;-57
2024/04/11 12:04:33;;;;;;;3.33;1.40;;;18.40;77.80;;;;;;5492576;26;20553;-57
2024/04/11 12:07:00;;;;;;;3.07;1.33;;;18.50;77.50;;;;;;5490622;26;20475;-57
2024/04/11 12:09:32;;;;;;;4.50;1.50;;;18.40;77.60;;;;;;5490715;26;20562;-57
2024/04/11 12:12:20;;;;;;;3.13;1.40;;;18.40;78.80;;;;;;5490991;26;20455;-57
2024/04/11 12:14:54;;;;;;;3.63;1.47;;;18.40;78.20;;;;;;5490745;26;20565;-57
2024/04/11 12:17:24;;;;;;;3.97;1.47;;;18.30;77.10;;;;;;5490482;26;20811;-54
2024/04/11 12:19:54;;;;;;;5.37;1.70;;;18.40;78.10;;;;;;5490752;26;20451;-56
2024/04/11 12:22:20;;;;;;;6.07;2.00;;;18.40;79.70;;;;;;5490442;26;20451;-57
2024/04/11 12:24:50;;;;;;;3.50;2.10;;;18.40;78.10;;;;;;5490494;26;20448;-57
2024/04/11 12:27:17;;;;;;;4.17;1.47;;;18.50;77.90;;;;;;5490232;26;20444;-58
2024/04/11 12:29:48;;;;;;;5.90;1.60;;;18.60;77.80;;;;;;5490150;26;20499;-57
2024/04/11 12:32:18;;;;;;;5.63;1.93;;;18.80;77.10;;;;;;5490368;26;20503;-57
2024/04/11 12:34:47;;;;;;;4.83;1.67;;;18.80;78.00;;;;;;5490383;26;20443;-56
2024/04/11 12:37:15;;;;;;;4.20;1.87;;;18.70;77.70;;;;;;5490167;26;20443;-58
2024/04/11 12:39:45;;;;;;;4.20;1.40;;;18.60;78.00;;;;;;5490134;26;20444;-57
2024/04/11 12:42:17;;;;;;;4.30;1.90;;;18.50;77.50;;;;;;5489911;26;20538;-57
2024/04/11 12:44:46;;;;;;;4.60;2.00;;;18.20;80.10;;;;;;5489863;26;21041;-56
2024/04/11 12:47:15;;;;;;;3.07;1.70;;;18.10;80.80;;;;;;5489278;26;20440;-57
2024/04/11 12:49:48;;;;;;;1.83;1.23;;;18.20;80.70;;;;;;5489858;26;20455;-57
2024/04/11 12:52:14;;;;;;;3.30;1.80;;;18.20;80.60;;;;;;5490039;26;20463;-55
2024/04/11 12:54:42;;;;;;;6.97;1.60;;;18.10;81.10;;;;;;5489785;26;20448;-56
2024/04/11 12:57:10;;;;;;;4.40;1.50;;;18.20;80.00;;;;;;5489663;26;20503;-55